sensor_id;sensor_type;location;lat;lon;timestamp;P1;durP1;ratioP1;P2;durP2;ratioP2
58928;SDS011;44713;53.378;10.022;2023-04-23T00:02:08;7.65;;;5.88;;
58928;SDS011;44713;53.378;10.022;2023-04-23T00:04:36;8.30;;;5.78;;
58928;SDS011;44713;53.378;10.022;2023-04-23T00:07:03;6.85;;;5.68;;
58928;SDS011;44713;53.378;10.022;2023-04-23T00:09:31;6.97;;;6.00;;
58928;SDS011;44713;53.378;10.022;2023-04-23T00:12:00;9.85;;;6.78;;
58928;SDS011;44713;53.378;10.022;2023-04-23T00:14:26;7.50;;;6.68;;
58928;SDS011;44713;53.378;10.022;2023-04-23T00:16:52;8.45;;;6.38;;
58928;SDS011;44713;53.378;10.022;2023-04-23T00:19:17;9.18;;;6.57;;
58928;SDS011;44713;53.378;10.022;2023-04-23T00:21:42;8.80;;;6.03;;
58928;SDS011;44713;53.378;10.022;2023-04-23T00:24:08;6.93;;;6.20;;
58928;SDS011;44713;53.378;10.022;2023-04-23T00:26:34;7.35;;;6.10;;
58928;SDS011;44713;53.378;10.022;2023-04-23T00:28:59;6.97;;;5.95;;
58928;SDS011;44713;53.378;10.022;2023-04-23T00:31:24;6.68;;;5.75;;
58928;SDS011;44713;53.378;10.022;2023-04-23T00:33:51;6.97;;;6.22;;
58928;SDS011;44713;53.378;10.022;2023-04-23T00:36:17;6.68;;;5.95;;
58928;SDS011;44713;53.378;10.022;2023-04-23T00:38:43;12.25;;;6.18;;
58928;SDS011;44713;53.378;10.022;2023-04-23T00:41:08;8.88;;;6.03;;
58928;SDS011;44713;53.378;10.022;2023-04-23T00:43:35;6.10;;;5.50;;
58928;SDS011;44713;53.378;10.022;2023-04-23T00:46:01;8.82;;;5.85;;
58928;SDS011;44713;53.378;10.022;2023-04-23T00:48:27;6.30;;;5.70;;
58928;SDS011;44713;53.378;10.022;2023-04-23T00:50:57;8.90;;;6.25;;
58928;SDS011;44713;53.378;10.022;2023-04-23T00:53:24;9.00;;;7.03;;
58928;SDS011;44713;53.378;10.022;2023-04-23T00:55:50;6.97;;;6.38;;
58928;SDS011;44713;53.378;10.022;2023-04-23T00:58:16;7.72;;;6.93;;
58928;SDS011;44713;53.378;10.022;2023-04-23T01:00:43;8.05;;;6.95;;
58928;SDS011;44713;53.378;10.022;2023-04-23T01:03:10;6.93;;;6.20;;
58928;SDS011;44713;53.378;10.022;2023-04-23T01:05:37;7.03;;;6.30;;
58928;SDS011;44713;53.378;10.022;2023-04-23T01:08:06;7.30;;;6.60;;
58928;SDS011;44713;53.378;10.022;2023-04-23T01:10:32;7.78;;;6.82;;
58928;SDS011;44713;53.378;10.022;2023-04-23T01:12:58;7.45;;;6.32;;
58928;SDS011;44713;53.378;10.022;2023-04-23T01:15:24;6.57;;;5.95;;
58928;SDS011;44713;53.378;10.022;2023-04-23T01:17:49;7.97;;;6.22;;
58928;SDS011;44713;53.378;10.022;2023-04-23T01:20:15;7.15;;;6.40;;
58928;SDS011;44713;53.378;10.022;2023-04-23T01:22:40;7.35;;;5.47;;
58928;SDS011;44713;53.378;10.022;2023-04-23T01:25:06;6.57;;;5.68;;
58928;SDS011;44713;53.378;10.022;2023-04-23T01:27:32;8.85;;;6.22;;
58928;SDS011;44713;53.378;10.022;2023-04-23T01:30:00;6.60;;;5.25;;
58928;SDS011;44713;53.378;10.022;2023-04-23T01:32:30;8.07;;;5.68;;
58928;SDS011;44713;53.378;10.022;2023-04-23T01:34:56;8.93;;;5.40;;
58928;SDS011;44713;53.378;10.022;2023-04-23T01:37:22;6.25;;;5.65;;
58928;SDS011;44713;53.378;10.022;2023-04-23T01:39:48;6.50;;;5.90;;
58928;SDS011;44713;53.378;10.022;2023-04-23T01:42:14;6.82;;;6.15;;
58928;SDS011;44713;53.378;10.022;2023-04-23T01:44:40;7.15;;;6.07;;
58928;SDS011;44713;53.378;10.022;2023-04-23T01:47:06;7.32;;;6.57;;
58928;SDS011;44713;53.378;10.022;2023-04-23T01:49:31;8.43;;;6.38;;
58928;SDS011;44713;53.378;10.022;2023-04-23T01:51:57;7.60;;;6.80;;
58928;SDS011;44713;53.378;10.022;2023-04-23T01:54:22;8.05;;;7.20;;
58928;SDS011;44713;53.378;10.022;2023-04-23T01:56:48;7.50;;;6.80;;
58928;SDS011;44713;53.378;10.022;2023-04-23T01:59:14;9.02;;;6.70;;
58928;SDS011;44713;53.378;10.022;2023-04-23T02:01:45;8.20;;;7.38;;
58928;SDS011;44713;53.378;10.022;2023-04-23T02:04:12;8.50;;;7.55;;
58928;SDS011;44713;53.378;10.022;2023-04-23T02:06:39;8.10;;;7.30;;
58928;SDS011;44713;53.378;10.022;2023-04-23T02:09:05;8.23;;;6.85;;
58928;SDS011;44713;53.378;10.022;2023-04-23T02:11:31;9.32;;;8.15;;
58928;SDS011;44713;53.378;10.022;2023-04-23T02:13:57;9.57;;;7.78;;
58928;SDS011;44713;53.378;10.022;2023-04-23T02:16:22;9.93;;;7.95;;
58928;SDS011;44713;53.378;10.022;2023-04-23T02:18:48;11.45;;;8.45;;
58928;SDS011;44713;53.378;10.022;2023-04-23T02:21:15;10.38;;;9.30;;
58928;SDS011;44713;53.378;10.022;2023-04-23T02:23:41;14.35;;;12.90;;
58928;SDS011;44713;53.378;10.022;2023-04-23T02:26:07;15.55;;;13.95;;
58928;SDS011;44713;53.378;10.022;2023-04-23T02:28:32;15.65;;;13.98;;
58928;SDS011;44713;53.378;10.022;2023-04-23T02:30:57;18.80;;;16.45;;
58928;SDS011;44713;53.378;10.022;2023-04-23T02:33:25;17.17;;;15.40;;
58928;SDS011;44713;53.378;10.022;2023-04-23T02:35:50;22.02;;;18.33;;
58928;SDS011;44713;53.378;10.022;2023-04-23T02:38:15;25.30;;;21.23;;
58928;SDS011;44713;53.378;10.022;2023-04-23T02:40:41;29.15;;;23.80;;
58928;SDS011;44713;53.378;10.022;2023-04-23T02:43:07;28.58;;;23.20;;
58928;SDS011;44713;53.378;10.022;2023-04-23T02:45:33;30.85;;;24.13;;
58928;SDS011;44713;53.378;10.022;2023-04-23T02:47:58;31.63;;;25.73;;
58928;SDS011;44713;53.378;10.022;2023-04-23T02:50:24;32.08;;;25.65;;
58928;SDS011;44713;53.378;10.022;2023-04-23T02:52:49;30.05;;;24.90;;
58928;SDS011;44713;53.378;10.022;2023-04-23T02:55:14;32.90;;;25.67;;
58928;SDS011;44713;53.378;10.022;2023-04-23T02:57:40;30.70;;;25.08;;
58928;SDS011;44713;53.378;10.022;2023-04-23T03:00:06;33.50;;;25.60;;
58928;SDS011;44713;53.378;10.022;2023-04-23T03:02:37;30.70;;;24.63;;
58928;SDS011;44713;53.378;10.022;2023-04-23T03:05:03;33.45;;;25.10;;
58928;SDS011;44713;53.378;10.022;2023-04-23T03:07:29;29.00;;;23.35;;
58928;SDS011;44713;53.378;10.022;2023-04-23T03:09:56;32.30;;;24.75;;
58928;SDS011;44713;53.378;10.022;2023-04-23T03:12:22;31.10;;;25.38;;
58928;SDS011;44713;53.378;10.022;2023-04-23T03:14:47;34.25;;;27.65;;
58928;SDS011;44713;53.378;10.022;2023-04-23T03:17:13;36.65;;;27.05;;
58928;SDS011;44713;53.378;10.022;2023-04-23T03:19:39;35.35;;;27.08;;
58928;SDS011;44713;53.378;10.022;2023-04-23T03:22:04;32.28;;;26.63;;
58928;SDS011;44713;53.378;10.022;2023-04-23T03:24:33;33.55;;;25.05;;
58928;SDS011;44713;53.378;10.022;2023-04-23T03:26:59;35.38;;;26.75;;
58928;SDS011;44713;53.378;10.022;2023-04-23T03:29:24;34.38;;;25.75;;
58928;SDS011;44713;53.378;10.022;2023-04-23T03:31:50;35.03;;;24.95;;
58928;SDS011;44713;53.378;10.022;2023-04-23T03:34:16;32.45;;;26.13;;
58928;SDS011;44713;53.378;10.022;2023-04-23T03:36:42;33.40;;;26.55;;
58928;SDS011;44713;53.378;10.022;2023-04-23T03:39:09;32.85;;;24.35;;
58928;SDS011;44713;53.378;10.022;2023-04-23T03:41:46;32.30;;;23.55;;
58928;SDS011;44713;53.378;10.022;2023-04-23T03:44:13;30.40;;;23.95;;
58928;SDS011;44713;53.378;10.022;2023-04-23T03:46:41;33.05;;;25.17;;
58928;SDS011;44713;53.378;10.022;2023-04-23T03:49:07;33.60;;;25.48;;
58928;SDS011;44713;53.378;10.022;2023-04-23T03:51:33;30.08;;;23.98;;
58928;SDS011;44713;53.378;10.022;2023-04-23T03:53:59;31.08;;;24.00;;
58928;SDS011;44713;53.378;10.022;2023-04-23T03:56:38;32.22;;;23.77;;
58928;SDS011;44713;53.378;10.022;2023-04-23T03:59:11;33.33;;;24.63;;
58928;SDS011;44713;53.378;10.022;2023-04-23T04:01:37;35.13;;;25.95;;
58928;SDS011;44713;53.378;10.022;2023-04-23T04:04:02;34.17;;;25.73;;
58928;SDS011;44713;53.378;10.022;2023-04-23T04:06:29;36.30;;;25.05;;
58928;SDS011;44713;53.378;10.022;2023-04-23T04:08:55;31.73;;;23.25;;
58928;SDS011;44713;53.378;10.022;2023-04-23T04:11:21;32.72;;;24.02;;
58928;SDS011;44713;53.378;10.022;2023-04-23T04:13:46;29.20;;;23.48;;
58928;SDS011;44713;53.378;10.022;2023-04-23T04:16:11;30.00;;;24.58;;
58928;SDS011;44713;53.378;10.022;2023-04-23T04:18:37;31.52;;;24.02;;
58928;SDS011;44713;53.378;10.022;2023-04-23T04:21:03;32.08;;;23.95;;
58928;SDS011;44713;53.378;10.022;2023-04-23T04:23:28;30.58;;;23.65;;
58928;SDS011;44713;53.378;10.022;2023-04-23T04:25:54;34.42;;;24.02;;
58928;SDS011;44713;53.378;10.022;2023-04-23T04:28:21;31.40;;;23.65;;
58928;SDS011;44713;53.378;10.022;2023-04-23T04:30:50;33.15;;;24.02;;
58928;SDS011;44713;53.378;10.022;2023-04-23T04:33:17;31.13;;;23.67;;
58928;SDS011;44713;53.378;10.022;2023-04-23T04:35:44;30.23;;;22.02;;
58928;SDS011;44713;53.378;10.022;2023-04-23T04:38:10;32.00;;;21.95;;
58928;SDS011;44713;53.378;10.022;2023-04-23T04:40:36;28.73;;;21.35;;
58928;SDS011;44713;53.378;10.022;2023-04-23T04:43:01;27.50;;;19.00;;
58928;SDS011;44713;53.378;10.022;2023-04-23T04:45:29;26.10;;;17.42;;
58928;SDS011;44713;53.378;10.022;2023-04-23T04:47:54;23.70;;;17.33;;
58928;SDS011;44713;53.378;10.022;2023-04-23T04:50:20;20.95;;;15.98;;
58928;SDS011;44713;53.378;10.022;2023-04-23T04:52:45;22.50;;;16.27;;
58928;SDS011;44713;53.378;10.022;2023-04-23T04:55:10;20.98;;;15.13;;
58928;SDS011;44713;53.378;10.022;2023-04-23T04:57:36;19.02;;;14.82;;
58928;SDS011;44713;53.378;10.022;2023-04-23T05:00:01;24.20;;;14.48;;
58928;SDS011;44713;53.378;10.022;2023-04-23T05:02:52;24.08;;;14.20;;
58928;SDS011;44713;53.378;10.022;2023-04-23T05:05:18;17.98;;;12.15;;
58928;SDS011;44713;53.378;10.022;2023-04-23T05:07:44;16.05;;;11.88;;
58928;SDS011;44713;53.378;10.022;2023-04-23T05:10:10;14.77;;;11.15;;
58928;SDS011;44713;53.378;10.022;2023-04-23T05:12:35;17.25;;;11.43;;
58928;SDS011;44713;53.378;10.022;2023-04-23T05:15:01;12.95;;;10.05;;
58928;SDS011;44713;53.378;10.022;2023-04-23T05:17:27;14.57;;;10.07;;
58928;SDS011;44713;53.378;10.022;2023-04-23T05:19:53;13.95;;;10.00;;
58928;SDS011;44713;53.378;10.022;2023-04-23T05:22:18;12.18;;;9.30;;
58928;SDS011;44713;53.378;10.022;2023-04-23T05:24:43;12.68;;;8.60;;
58928;SDS011;44713;53.378;10.022;2023-04-23T05:27:10;9.02;;;7.10;;
58928;SDS011;44713;53.378;10.022;2023-04-23T05:29:35;10.38;;;7.63;;
58928;SDS011;44713;53.378;10.022;2023-04-23T05:32:01;11.85;;;7.03;;
58928;SDS011;44713;53.378;10.022;2023-04-23T05:34:26;11.43;;;7.78;;
58928;SDS011;44713;53.378;10.022;2023-04-23T05:36:51;10.40;;;7.15;;
58928;SDS011;44713;53.378;10.022;2023-04-23T05:39:17;7.97;;;6.25;;
58928;SDS011;44713;53.378;10.022;2023-04-23T05:41:42;9.43;;;6.38;;
58928;SDS011;44713;53.378;10.022;2023-04-23T05:44:07;9.52;;;5.65;;
58928;SDS011;44713;53.378;10.022;2023-04-23T05:46:33;9.50;;;6.15;;
58928;SDS011;44713;53.378;10.022;2023-04-23T05:48:59;10.73;;;6.07;;
58928;SDS011;44713;53.378;10.022;2023-04-23T05:51:24;7.88;;;6.68;;
58928;SDS011;44713;53.378;10.022;2023-04-23T05:53:50;9.00;;;7.15;;
58928;SDS011;44713;53.378;10.022;2023-04-23T05:56:15;16.23;;;7.70;;
58928;SDS011;44713;53.378;10.022;2023-04-23T05:58:41;9.70;;;7.93;;
58928;SDS011;44713;53.378;10.022;2023-04-23T06:01:06;11.45;;;7.97;;
58928;SDS011;44713;53.378;10.022;2023-04-23T06:03:31;11.55;;;7.50;;
58928;SDS011;44713;53.378;10.022;2023-04-23T06:05:56;8.13;;;6.82;;
58928;SDS011;44713;53.378;10.022;2023-04-23T06:08:22;11.18;;;6.90;;
58928;SDS011;44713;53.378;10.022;2023-04-23T06:10:47;7.85;;;6.45;;
58928;SDS011;44713;53.378;10.022;2023-04-23T06:13:13;9.23;;;6.22;;
58928;SDS011;44713;53.378;10.022;2023-04-23T06:15:38;9.18;;;6.35;;
58928;SDS011;44713;53.378;10.022;2023-04-23T06:18:04;7.55;;;5.47;;
58928;SDS011;44713;53.378;10.022;2023-04-23T06:20:29;5.63;;;4.85;;
58928;SDS011;44713;53.378;10.022;2023-04-23T06:22:55;8.88;;;4.93;;
58928;SDS011;44713;53.378;10.022;2023-04-23T06:25:20;9.70;;;4.40;;
58928;SDS011;44713;53.378;10.022;2023-04-23T06:27:45;7.45;;;4.53;;
58928;SDS011;44713;53.378;10.022;2023-04-23T06:30:17;6.53;;;4.22;;
58928;SDS011;44713;53.378;10.022;2023-04-23T06:32:44;7.78;;;4.28;;
58928;SDS011;44713;53.378;10.022;2023-04-23T06:35:10;7.22;;;4.80;;
58928;SDS011;44713;53.378;10.022;2023-04-23T06:37:35;6.15;;;4.68;;
58928;SDS011;44713;53.378;10.022;2023-04-23T06:40:01;8.10;;;5.10;;
58928;SDS011;44713;53.378;10.022;2023-04-23T06:42:26;5.72;;;4.43;;
58928;SDS011;44713;53.378;10.022;2023-04-23T06:45:21;12.25;;;4.88;;
58928;SDS011;44713;53.378;10.022;2023-04-23T06:47:46;5.80;;;4.63;;
58928;SDS011;44713;53.378;10.022;2023-04-23T06:50:13;9.18;;;5.05;;
58928;SDS011;44713;53.378;10.022;2023-04-23T06:52:38;7.35;;;4.70;;
58928;SDS011;44713;53.378;10.022;2023-04-23T06:55:04;6.70;;;5.20;;
58928;SDS011;44713;53.378;10.022;2023-04-23T06:57:30;4.97;;;4.47;;
58928;SDS011;44713;53.378;10.022;2023-04-23T06:59:55;5.30;;;4.43;;
58928;SDS011;44713;53.378;10.022;2023-04-23T07:02:24;9.13;;;4.78;;
58928;SDS011;44713;53.378;10.022;2023-04-23T07:04:50;7.13;;;4.35;;
58928;SDS011;44713;53.378;10.022;2023-04-23T07:07:15;6.53;;;4.90;;
58928;SDS011;44713;53.378;10.022;2023-04-23T07:09:42;7.60;;;4.70;;
58928;SDS011;44713;53.378;10.022;2023-04-23T07:12:08;5.57;;;4.28;;
58928;SDS011;44713;53.378;10.022;2023-04-23T07:14:33;5.15;;;4.22;;
58928;SDS011;44713;53.378;10.022;2023-04-23T07:16:58;6.85;;;5.55;;
58928;SDS011;44713;53.378;10.022;2023-04-23T07:19:24;5.47;;;4.72;;
58928;SDS011;44713;53.378;10.022;2023-04-23T07:21:49;6.75;;;5.07;;
58928;SDS011;44713;53.378;10.022;2023-04-23T07:24:15;7.25;;;5.03;;
58928;SDS011;44713;53.378;10.022;2023-04-23T07:26:40;8.35;;;4.82;;
58928;SDS011;44713;53.378;10.022;2023-04-23T07:29:06;6.88;;;4.90;;
58928;SDS011;44713;53.378;10.022;2023-04-23T07:31:32;8.00;;;5.28;;
58928;SDS011;44713;53.378;10.022;2023-04-23T07:33:57;8.05;;;4.65;;
58928;SDS011;44713;53.378;10.022;2023-04-23T07:36:23;7.03;;;5.35;;
58928;SDS011;44713;53.378;10.022;2023-04-23T07:38:48;9.88;;;5.43;;
58928;SDS011;44713;53.378;10.022;2023-04-23T07:41:15;7.13;;;5.00;;
58928;SDS011;44713;53.378;10.022;2023-04-23T07:43:41;7.18;;;5.03;;
58928;SDS011;44713;53.378;10.022;2023-04-23T07:46:06;6.05;;;5.03;;
58928;SDS011;44713;53.378;10.022;2023-04-23T07:48:32;7.38;;;5.65;;
58928;SDS011;44713;53.378;10.022;2023-04-23T07:50:58;5.82;;;5.22;;
58928;SDS011;44713;53.378;10.022;2023-04-23T07:53:24;8.05;;;5.15;;
58928;SDS011;44713;53.378;10.022;2023-04-23T07:56:06;7.47;;;5.95;;
58928;SDS011;44713;53.378;10.022;2023-04-23T07:59:07;7.57;;;5.53;;
58928;SDS011;44713;53.378;10.022;2023-04-23T08:01:33;6.78;;;5.30;;
58928;SDS011;44713;53.378;10.022;2023-04-23T08:03:59;7.97;;;5.63;;
58928;SDS011;44713;53.378;10.022;2023-04-23T08:06:24;9.57;;;5.97;;
58928;SDS011;44713;53.378;10.022;2023-04-23T08:08:51;6.82;;;5.50;;
58928;SDS011;44713;53.378;10.022;2023-04-23T08:11:16;6.13;;;5.18;;
58928;SDS011;44713;53.378;10.022;2023-04-23T08:13:42;7.63;;;5.75;;
58928;SDS011;44713;53.378;10.022;2023-04-23T08:16:08;6.88;;;5.80;;
58928;SDS011;44713;53.378;10.022;2023-04-23T08:18:33;7.30;;;5.88;;
58928;SDS011;44713;53.378;10.022;2023-04-23T08:20:59;10.05;;;6.32;;
58928;SDS011;44713;53.378;10.022;2023-04-23T08:23:25;9.10;;;6.05;;
58928;SDS011;44713;53.378;10.022;2023-04-23T08:25:50;9.10;;;6.32;;
58928;SDS011;44713;53.378;10.022;2023-04-23T08:28:17;9.85;;;6.55;;
58928;SDS011;44713;53.378;10.022;2023-04-23T08:30:42;10.10;;;6.47;;
58928;SDS011;44713;53.378;10.022;2023-04-23T08:33:08;19.45;;;12.50;;
58928;SDS011;44713;53.378;10.022;2023-04-23T08:35:33;9.38;;;7.60;;
58928;SDS011;44713;53.378;10.022;2023-04-23T08:37:59;7.70;;;6.45;;
58928;SDS011;44713;53.378;10.022;2023-04-23T08:40:25;10.57;;;7.30;;
58928;SDS011;44713;53.378;10.022;2023-04-23T08:43:02;7.25;;;6.40;;
58928;SDS011;44713;53.378;10.022;2023-04-23T08:45:30;10.65;;;6.95;;
58928;SDS011;44713;53.378;10.022;2023-04-23T08:47:59;9.02;;;6.80;;
58928;SDS011;44713;53.378;10.022;2023-04-23T08:50:25;8.85;;;6.82;;
58928;SDS011;44713;53.378;10.022;2023-04-23T08:52:52;7.80;;;6.85;;
58928;SDS011;44713;53.378;10.022;2023-04-23T08:55:19;9.63;;;7.05;;
58928;SDS011;44713;53.378;10.022;2023-04-23T08:57:45;8.32;;;6.88;;
58928;SDS011;44713;53.378;10.022;2023-04-23T09:00:11;8.18;;;7.15;;
58928;SDS011;44713;53.378;10.022;2023-04-23T09:02:42;9.57;;;7.10;;
58928;SDS011;44713;53.378;10.022;2023-04-23T09:05:09;10.93;;;7.53;;
58928;SDS011;44713;53.378;10.022;2023-04-23T09:07:36;10.95;;;8.05;;
58928;SDS011;44713;53.378;10.022;2023-04-23T09:10:05;8.68;;;7.32;;
58928;SDS011;44713;53.378;10.022;2023-04-23T09:12:34;7.85;;;7.00;;
58928;SDS011;44713;53.378;10.022;2023-04-23T09:15:00;10.70;;;7.40;;
58928;SDS011;44713;53.378;10.022;2023-04-23T09:17:27;10.50;;;6.97;;
58928;SDS011;44713;53.378;10.022;2023-04-23T09:19:53;10.48;;;7.65;;
58928;SDS011;44713;53.378;10.022;2023-04-23T09:22:36;8.43;;;6.90;;
58928;SDS011;44713;53.378;10.022;2023-04-23T09:25:05;9.27;;;7.10;;
58928;SDS011;44713;53.378;10.022;2023-04-23T09:27:32;11.15;;;7.63;;
58928;SDS011;44713;53.378;10.022;2023-04-23T09:29:57;11.05;;;8.80;;
58928;SDS011;44713;53.378;10.022;2023-04-23T09:32:30;11.50;;;8.32;;
58928;SDS011;44713;53.378;10.022;2023-04-23T09:35:06;12.43;;;10.35;;
58928;SDS011;44713;53.378;10.022;2023-04-23T09:37:33;10.73;;;9.30;;
58928;SDS011;44713;53.378;10.022;2023-04-23T09:39:59;10.23;;;9.18;;
58928;SDS011;44713;53.378;10.022;2023-04-23T09:42:31;11.38;;;10.27;;
58928;SDS011;44713;53.378;10.022;2023-04-23T09:44:58;11.18;;;9.55;;
58928;SDS011;44713;53.378;10.022;2023-04-23T09:47:27;11.60;;;9.57;;
58928;SDS011;44713;53.378;10.022;2023-04-23T09:49:56;11.45;;;9.45;;
58928;SDS011;44713;53.378;10.022;2023-04-23T09:52:21;11.20;;;9.77;;
58928;SDS011;44713;53.378;10.022;2023-04-23T09:54:47;12.68;;;10.43;;
58928;SDS011;44713;53.378;10.022;2023-04-23T09:57:12;11.07;;;9.63;;
58928;SDS011;44713;53.378;10.022;2023-04-23T09:59:38;13.07;;;11.60;;
58928;SDS011;44713;53.378;10.022;2023-04-23T10:02:04;12.75;;;11.38;;
58928;SDS011;44713;53.378;10.022;2023-04-23T10:04:31;14.75;;;10.85;;
58928;SDS011;44713;53.378;10.022;2023-04-23T10:07:01;13.25;;;11.93;;
58928;SDS011;44713;53.378;10.022;2023-04-23T10:09:29;12.10;;;10.38;;
58928;SDS011;44713;53.378;10.022;2023-04-23T10:11:55;13.75;;;11.35;;
58928;SDS011;44713;53.378;10.022;2023-04-23T10:14:23;11.65;;;10.45;;
58928;SDS011;44713;53.378;10.022;2023-04-23T10:16:50;13.88;;;10.35;;
58928;SDS011;44713;53.378;10.022;2023-04-23T10:19:21;11.70;;;10.25;;
58928;SDS011;44713;53.378;10.022;2023-04-23T10:21:52;11.88;;;10.18;;
58928;SDS011;44713;53.378;10.022;2023-04-23T10:24:24;11.60;;;10.40;;
58928;SDS011;44713;53.378;10.022;2023-04-23T10:26:55;13.93;;;10.07;;
58928;SDS011;44713;53.378;10.022;2023-04-23T10:29:25;13.05;;;11.63;;
58928;SDS011;44713;53.378;10.022;2023-04-23T10:31:54;11.50;;;10.00;;
58928;SDS011;44713;53.378;10.022;2023-04-23T10:34:20;10.07;;;8.98;;
58928;SDS011;44713;53.378;10.022;2023-04-23T10:36:48;9.57;;;8.55;;
58928;SDS011;44713;53.378;10.022;2023-04-23T10:39:15;10.05;;;8.38;;
58928;SDS011;44713;53.378;10.022;2023-04-23T10:41:41;8.77;;;7.82;;
58928;SDS011;44713;53.378;10.022;2023-04-23T10:44:11;9.32;;;7.97;;
58928;SDS011;44713;53.378;10.022;2023-04-23T10:46:37;9.73;;;7.90;;
58928;SDS011;44713;53.378;10.022;2023-04-23T10:49:13;9.50;;;7.63;;
58928;SDS011;44713;53.378;10.022;2023-04-23T10:51:40;7.90;;;7.10;;
58928;SDS011;44713;53.378;10.022;2023-04-23T10:54:10;8.38;;;6.55;;
58928;SDS011;44713;53.378;10.022;2023-04-23T10:56:38;10.32;;;5.75;;
58928;SDS011;44713;53.378;10.022;2023-04-23T10:59:10;6.75;;;5.43;;
58928;SDS011;44713;53.378;10.022;2023-04-23T11:01:45;8.60;;;5.78;;
58928;SDS011;44713;53.378;10.022;2023-04-23T11:04:21;7.18;;;5.47;;
58928;SDS011;44713;53.378;10.022;2023-04-23T11:09:26;7.10;;;6.03;;
58928;SDS011;44713;53.378;10.022;2023-04-23T11:11:57;6.82;;;6.07;;
58928;SDS011;44713;53.378;10.022;2023-04-23T11:14:33;6.15;;;5.53;;
58928;SDS011;44713;53.378;10.022;2023-04-23T11:17:07;5.28;;;4.68;;
58928;SDS011;44713;53.378;10.022;2023-04-23T11:19:39;5.45;;;4.93;;
58928;SDS011;44713;53.378;10.022;2023-04-23T11:24:44;6.72;;;4.22;;
58928;SDS011;44713;53.378;10.022;2023-04-23T11:27:14;5.43;;;4.32;;
58928;SDS011;44713;53.378;10.022;2023-04-23T11:29:41;3.95;;;3.55;;
58928;SDS011;44713;53.378;10.022;2023-04-23T11:32:09;5.90;;;4.85;;
58928;SDS011;44713;53.378;10.022;2023-04-23T11:34:41;5.35;;;4.85;;
58928;SDS011;44713;53.378;10.022;2023-04-23T11:37:12;5.00;;;4.50;;
58928;SDS011;44713;53.378;10.022;2023-04-23T11:39:40;5.25;;;4.32;;
58928;SDS011;44713;53.378;10.022;2023-04-23T11:42:11;5.63;;;4.03;;
58928;SDS011;44713;53.378;10.022;2023-04-23T11:44:40;4.32;;;3.90;;
58928;SDS011;44713;53.378;10.022;2023-04-23T11:47:07;4.65;;;3.83;;
58928;SDS011;44713;53.378;10.022;2023-04-23T11:49:37;4.32;;;3.17;;
58928;SDS011;44713;53.378;10.022;2023-04-23T11:52:09;3.50;;;3.13;;
58928;SDS011;44713;53.378;10.022;2023-04-23T11:54:40;3.78;;;3.10;;
58928;SDS011;44713;53.378;10.022;2023-04-23T11:57:06;4.10;;;3.22;;
58928;SDS011;44713;53.378;10.022;2023-04-23T11:59:32;3.58;;;2.85;;
58928;SDS011;44713;53.378;10.022;2023-04-23T12:01:58;4.80;;;3.10;;
58928;SDS011;44713;53.378;10.022;2023-04-23T12:04:25;3.28;;;2.88;;
58928;SDS011;44713;53.378;10.022;2023-04-23T12:06:52;4.57;;;3.17;;
58928;SDS011;44713;53.378;10.022;2023-04-23T12:09:19;4.45;;;2.75;;
58928;SDS011;44713;53.378;10.022;2023-04-23T12:11:47;5.45;;;2.75;;
58928;SDS011;44713;53.378;10.022;2023-04-23T12:14:15;6.03;;;3.10;;
58928;SDS011;44713;53.378;10.022;2023-04-23T12:16:45;3.90;;;2.40;;
58928;SDS011;44713;53.378;10.022;2023-04-23T12:19:17;2.67;;;2.47;;
58928;SDS011;44713;53.378;10.022;2023-04-23T12:21:58;3.08;;;2.13;;
58928;SDS011;44713;53.378;10.022;2023-04-23T12:24:25;3.00;;;2.05;;
58928;SDS011;44713;53.378;10.022;2023-04-23T12:26:53;2.83;;;2.40;;
58928;SDS011;44713;53.378;10.022;2023-04-23T12:29:23;3.70;;;2.35;;
58928;SDS011;44713;53.378;10.022;2023-04-23T12:31:50;9.18;;;2.90;;
58928;SDS011;44713;53.378;10.022;2023-04-23T12:34:16;2.95;;;2.63;;
58928;SDS011;44713;53.378;10.022;2023-04-23T12:36:43;4.32;;;2.67;;
58928;SDS011;44713;53.378;10.022;2023-04-23T12:41:49;3.20;;;2.90;;
58928;SDS011;44713;53.378;10.022;2023-04-23T12:44:15;3.35;;;2.22;;
58928;SDS011;44713;53.378;10.022;2023-04-23T12:46:41;3.25;;;2.28;;
58928;SDS011;44713;53.378;10.022;2023-04-23T12:49:06;3.85;;;2.50;;
58928;SDS011;44713;53.378;10.022;2023-04-23T12:51:31;2.58;;;2.38;;
58928;SDS011;44713;53.378;10.022;2023-04-23T12:53:57;3.17;;;2.10;;
58928;SDS011;44713;53.378;10.022;2023-04-23T12:56:22;2.75;;;2.42;;
58928;SDS011;44713;53.378;10.022;2023-04-23T12:58:48;3.67;;;2.53;;
58928;SDS011;44713;53.378;10.022;2023-04-23T13:01:13;3.05;;;2.20;;
58928;SDS011;44713;53.378;10.022;2023-04-23T13:03:39;4.15;;;2.30;;
58928;SDS011;44713;53.378;10.022;2023-04-23T13:06:04;2.25;;;2.00;;
58928;SDS011;44713;53.378;10.022;2023-04-23T13:08:32;4.28;;;2.22;;
58928;SDS011;44713;53.378;10.022;2023-04-23T13:10:57;2.90;;;2.08;;
58928;SDS011;44713;53.378;10.022;2023-04-23T13:13:23;2.60;;;2.10;;
58928;SDS011;44713;53.378;10.022;2023-04-23T13:15:48;2.08;;;1.70;;
58928;SDS011;44713;53.378;10.022;2023-04-23T13:18:13;3.13;;;1.95;;
58928;SDS011;44713;53.378;10.022;2023-04-23T13:20:39;2.17;;;1.60;;
58928;SDS011;44713;53.378;10.022;2023-04-23T13:23:05;2.50;;;1.50;;
58928;SDS011;44713;53.378;10.022;2023-04-23T13:25:33;3.78;;;1.60;;
58928;SDS011;44713;53.378;10.022;2023-04-23T13:27:58;3.25;;;1.70;;
58928;SDS011;44713;53.378;10.022;2023-04-23T13:30:24;5.63;;;1.90;;
58928;SDS011;44713;53.378;10.022;2023-04-23T13:32:49;3.10;;;1.60;;
58928;SDS011;44713;53.378;10.022;2023-04-23T13:35:15;3.53;;;1.77;;
58928;SDS011;44713;53.378;10.022;2023-04-23T13:37:41;3.20;;;1.75;;
58928;SDS011;44713;53.378;10.022;2023-04-23T13:40:07;3.45;;;2.08;;
58928;SDS011;44713;53.378;10.022;2023-04-23T13:42:33;3.28;;;2.25;;
58928;SDS011;44713;53.378;10.022;2023-04-23T13:44:59;5.95;;;2.72;;
58928;SDS011;44713;53.378;10.022;2023-04-23T13:47:26;3.03;;;2.30;;
58928;SDS011;44713;53.378;10.022;2023-04-23T13:49:55;2.35;;;2.10;;
58928;SDS011;44713;53.378;10.022;2023-04-23T13:52:20;2.80;;;2.30;;
58928;SDS011;44713;53.378;10.022;2023-04-23T13:54:46;3.30;;;1.90;;
58928;SDS011;44713;53.378;10.022;2023-04-23T13:57:13;3.85;;;2.17;;
58928;SDS011;44713;53.378;10.022;2023-04-23T13:59:39;2.97;;;1.95;;
58928;SDS011;44713;53.378;10.022;2023-04-23T14:02:04;2.35;;;1.92;;
58928;SDS011;44713;53.378;10.022;2023-04-23T14:04:29;2.83;;;2.00;;
58928;SDS011;44713;53.378;10.022;2023-04-23T14:06:55;3.22;;;2.13;;
58928;SDS011;44713;53.378;10.022;2023-04-23T14:09:20;3.75;;;2.40;;
58928;SDS011;44713;53.378;10.022;2023-04-23T14:11:46;4.03;;;2.03;;
58928;SDS011;44713;53.378;10.022;2023-04-23T14:14:11;3.55;;;1.90;;
58928;SDS011;44713;53.378;10.022;2023-04-23T14:16:37;3.17;;;1.63;;
58928;SDS011;44713;53.378;10.022;2023-04-23T14:19:02;6.90;;;1.90;;
58928;SDS011;44713;53.378;10.022;2023-04-23T14:21:27;6.18;;;2.60;;
58928;SDS011;44713;53.378;10.022;2023-04-23T14:24:15;5.05;;;2.85;;
58928;SDS011;44713;53.378;10.022;2023-04-23T14:26:42;4.72;;;2.70;;
58928;SDS011;44713;53.378;10.022;2023-04-23T14:29:23;3.78;;;2.80;;
58928;SDS011;44713;53.378;10.022;2023-04-23T14:31:54;3.17;;;2.55;;
58928;SDS011;44713;53.378;10.022;2023-04-23T14:34:20;2.72;;;2.30;;